sensor_id;sensor_type;location;lat;lon;timestamp;P1;durP1;ratioP1;P2;durP2;ratioP2
46675;SDS011;32412;51.478;5.694;2023-05-19T00:01:25;19.02;;;7.35;;
46675;SDS011;32412;51.478;5.694;2023-05-19T00:03:53;15.90;;;8.43;;
46675;SDS011;32412;51.478;5.694;2023-05-19T00:06:27;16.20;;;7.78;;
46675;SDS011;32412;51.478;5.694;2023-05-19T00:08:58;9.93;;;7.30;;
46675;SDS011;32412;51.478;5.694;2023-05-19T00:11:28;10.18;;;7.25;;
46675;SDS011;32412;51.478;5.694;2023-05-19T00:13:55;13.40;;;7.88;;
46675;SDS011;32412;51.478;5.694;2023-05-19T00:16:23;16.40;;;8.00;;
46675;SDS011;32412;51.478;5.694;2023-05-19T00:18:49;13.93;;;7.57;;
46675;SDS011;32412;51.478;5.694;2023-05-19T00:21:16;10.52;;;7.55;;
46675;SDS011;32412;51.478;5.694;2023-05-19T00:23:41;12.35;;;7.00;;
46675;SDS011;32412;51.478;5.694;2023-05-19T00:26:07;16.23;;;7.60;;
46675;SDS011;32412;51.478;5.694;2023-05-19T00:28:33;13.40;;;8.02;;
46675;SDS011;32412;51.478;5.694;2023-05-19T00:30:59;15.32;;;7.57;;
46675;SDS011;32412;51.478;5.694;2023-05-19T00:33:26;12.02;;;7.50;;
46675;SDS011;32412;51.478;5.694;2023-05-19T00:35:52;15.18;;;7.78;;
46675;SDS011;32412;51.478;5.694;2023-05-19T00:38:17;12.98;;;7.80;;
46675;SDS011;32412;51.478;5.694;2023-05-19T00:40:43;11.13;;;6.82;;
46675;SDS011;32412;51.478;5.694;2023-05-19T00:43:09;11.93;;;6.82;;
46675;SDS011;32412;51.478;5.694;2023-05-19T00:45:35;11.75;;;6.70;;
46675;SDS011;32412;51.478;5.694;2023-05-19T00:48:01;12.82;;;7.03;;
46675;SDS011;32412;51.478;5.694;2023-05-19T00:50:26;12.90;;;6.35;;
46675;SDS011;32412;51.478;5.694;2023-05-19T00:52:55;16.40;;;6.90;;
46675;SDS011;32412;51.478;5.694;2023-05-19T00:55:22;10.80;;;6.15;;
46675;SDS011;32412;51.478;5.694;2023-05-19T00:57:51;13.20;;;6.20;;
46675;SDS011;32412;51.478;5.694;2023-05-19T01:00:18;13.15;;;6.47;;
46675;SDS011;32412;51.478;5.694;2023-05-19T01:02:43;12.50;;;6.40;;
46675;SDS011;32412;51.478;5.694;2023-05-19T01:05:09;14.45;;;6.60;;
46675;SDS011;32412;51.478;5.694;2023-05-19T01:07:36;14.88;;;7.25;;
46675;SDS011;32412;51.478;5.694;2023-05-19T01:10:02;10.75;;;6.25;;
46675;SDS011;32412;51.478;5.694;2023-05-19T01:12:28;11.23;;;6.65;;
46675;SDS011;32412;51.478;5.694;2023-05-19T01:14:54;12.38;;;6.72;;
46675;SDS011;32412;51.478;5.694;2023-05-19T01:31:14;11.45;;;6.55;;
46675;SDS011;32412;51.478;5.694;2023-05-19T01:33:45;16.15;;;7.72;;
46675;SDS011;32412;51.478;5.694;2023-05-19T01:36:12;16.00;;;7.25;;
46675;SDS011;32412;51.478;5.694;2023-05-19T01:38:39;13.05;;;7.32;;
46675;SDS011;32412;51.478;5.694;2023-05-19T01:41:07;19.65;;;7.85;;
46675;SDS011;32412;51.478;5.694;2023-05-19T01:43:35;12.48;;;7.40;;
46675;SDS011;32412;51.478;5.694;2023-05-19T01:46:09;9.77;;;6.72;;
46675;SDS011;32412;51.478;5.694;2023-05-19T01:48:39;14.77;;;7.85;;
46675;SDS011;32412;51.478;5.694;2023-05-19T01:51:06;15.45;;;7.88;;
46675;SDS011;32412;51.478;5.694;2023-05-19T01:53:31;18.13;;;7.63;;
46675;SDS011;32412;51.478;5.694;2023-05-19T01:55:57;21.63;;;8.20;;
46675;SDS011;32412;51.478;5.694;2023-05-19T02:01:26;15.40;;;7.90;;
46675;SDS011;32412;51.478;5.694;2023-05-19T02:07:44;14.07;;;7.47;;
46675;SDS011;32412;51.478;5.694;2023-05-19T02:14:08;17.20;;;8.25;;
46675;SDS011;32412;51.478;5.694;2023-05-19T02:23:57;18.38;;;8.48;;
46675;SDS011;32412;51.478;5.694;2023-05-19T02:27:00;17.88;;;8.50;;
46675;SDS011;32412;51.478;5.694;2023-05-19T02:39:18;15.02;;;8.30;;
46675;SDS011;32412;51.478;5.694;2023-05-19T02:42:04;14.77;;;9.02;;
46675;SDS011;32412;51.478;5.694;2023-05-19T02:44:36;15.30;;;9.07;;
46675;SDS011;32412;51.478;5.694;2023-05-19T02:50:05;21.60;;;10.15;;
46675;SDS011;32412;51.478;5.694;2023-05-19T02:52:35;17.23;;;8.48;;
46675;SDS011;32412;51.478;5.694;2023-05-19T02:55:01;14.27;;;8.20;;
46675;SDS011;32412;51.478;5.694;2023-05-19T02:57:31;15.05;;;8.60;;
46675;SDS011;32412;51.478;5.694;2023-05-19T03:00:13;15.20;;;9.07;;
46675;SDS011;32412;51.478;5.694;2023-05-19T03:02:54;18.23;;;9.93;;
46675;SDS011;32412;51.478;5.694;2023-05-19T03:05:42;12.80;;;9.02;;
46675;SDS011;32412;51.478;5.694;2023-05-19T03:08:07;12.45;;;8.55;;
46675;SDS011;32412;51.478;5.694;2023-05-19T03:10:34;14.77;;;9.40;;
46675;SDS011;32412;51.478;5.694;2023-05-19T03:13:00;16.60;;;8.45;;
46675;SDS011;32412;51.478;5.694;2023-05-19T03:15:29;16.80;;;8.73;;
46675;SDS011;32412;51.478;5.694;2023-05-19T03:18:29;17.77;;;8.98;;
46675;SDS011;32412;51.478;5.694;2023-05-19T03:24:36;15.68;;;8.65;;
46675;SDS011;32412;51.478;5.694;2023-05-19T03:27:43;13.07;;;8.77;;
46675;SDS011;32412;51.478;5.694;2023-05-19T03:30:15;17.27;;;8.43;;
46675;SDS011;32412;51.478;5.694;2023-05-19T03:32:50;18.63;;;9.65;;
46675;SDS011;32412;51.478;5.694;2023-05-19T03:35:19;14.13;;;8.45;;
46675;SDS011;32412;51.478;5.694;2023-05-19T03:37:45;14.05;;;9.30;;
46675;SDS011;32412;51.478;5.694;2023-05-19T03:40:24;17.42;;;9.70;;
46675;SDS011;32412;51.478;5.694;2023-05-19T03:42:50;16.90;;;8.70;;
46675;SDS011;32412;51.478;5.694;2023-05-19T03:45:15;18.23;;;9.02;;
46675;SDS011;32412;51.478;5.694;2023-05-19T03:47:45;21.38;;;10.07;;
46675;SDS011;32412;51.478;5.694;2023-05-19T03:50:11;18.75;;;9.55;;
46675;SDS011;32412;51.478;5.694;2023-05-19T03:52:41;27.08;;;9.88;;
46675;SDS011;32412;51.478;5.694;2023-05-19T03:55:21;13.75;;;9.00;;
46675;SDS011;32412;51.478;5.694;2023-05-19T03:58:01;20.48;;;9.60;;
46675;SDS011;32412;51.478;5.694;2023-05-19T04:07:06;16.95;;;10.10;;
46675;SDS011;32412;51.478;5.694;2023-05-19T04:09:32;18.90;;;9.32;;
46675;SDS011;32412;51.478;5.694;2023-05-19T04:11:59;18.23;;;10.13;;
46675;SDS011;32412;51.478;5.694;2023-05-19T04:14:26;19.23;;;10.02;;
46675;SDS011;32412;51.478;5.694;2023-05-19T04:16:52;20.08;;;9.90;;
46675;SDS011;32412;51.478;5.694;2023-05-19T04:19:19;17.17;;;9.60;;
46675;SDS011;32412;51.478;5.694;2023-05-19T04:21:56;20.98;;;8.93;;
46675;SDS011;32412;51.478;5.694;2023-05-19T04:31:51;19.63;;;9.55;;
46675;SDS011;32412;51.478;5.694;2023-05-19T04:35:10;17.55;;;9.57;;
46675;SDS011;32412;51.478;5.694;2023-05-19T04:45:04;18.20;;;9.32;;
46675;SDS011;32412;51.478;5.694;2023-05-19T04:47:46;20.90;;;9.75;;
46675;SDS011;32412;51.478;5.694;2023-05-19T04:50:58;19.92;;;9.10;;
46675;SDS011;32412;51.478;5.694;2023-05-19T04:53:31;21.17;;;9.70;;
46675;SDS011;32412;51.478;5.694;2023-05-19T04:56:00;16.48;;;9.20;;
46675;SDS011;32412;51.478;5.694;2023-05-19T04:58:26;16.92;;;9.05;;
46675;SDS011;32412;51.478;5.694;2023-05-19T05:00:52;15.63;;;8.73;;
46675;SDS011;32412;51.478;5.694;2023-05-19T05:03:22;11.88;;;8.63;;
46675;SDS011;32412;51.478;5.694;2023-05-19T05:05:49;15.52;;;8.55;;
46675;SDS011;32412;51.478;5.694;2023-05-19T05:08:15;15.75;;;9.52;;
46675;SDS011;32412;51.478;5.694;2023-05-19T05:10:46;16.52;;;8.40;;
46675;SDS011;32412;51.478;5.694;2023-05-19T05:13:16;14.68;;;8.07;;
46675;SDS011;32412;51.478;5.694;2023-05-19T05:15:46;15.48;;;8.13;;
46675;SDS011;32412;51.478;5.694;2023-05-19T05:18:13;14.32;;;8.48;;
46675;SDS011;32412;51.478;5.694;2023-05-19T05:20:40;15.48;;;8.20;;
46675;SDS011;32412;51.478;5.694;2023-05-19T05:23:09;17.02;;;8.07;;
46675;SDS011;32412;51.478;5.694;2023-05-19T05:25:38;13.98;;;8.27;;
46675;SDS011;32412;51.478;5.694;2023-05-19T05:28:05;14.30;;;8.23;;
46675;SDS011;32412;51.478;5.694;2023-05-19T05:30:32;14.05;;;8.68;;
46675;SDS011;32412;51.478;5.694;2023-05-19T05:32:58;15.23;;;8.02;;
46675;SDS011;32412;51.478;5.694;2023-05-19T05:35:24;14.57;;;8.48;;
46675;SDS011;32412;51.478;5.694;2023-05-19T05:37:49;13.73;;;8.30;;
46675;SDS011;32412;51.478;5.694;2023-05-19T05:40:15;17.70;;;7.65;;
46675;SDS011;32412;51.478;5.694;2023-05-19T05:42:42;13.77;;;7.85;;
46675;SDS011;32412;51.478;5.694;2023-05-19T05:45:07;15.10;;;7.75;;
46675;SDS011;32412;51.478;5.694;2023-05-19T05:47:33;16.42;;;8.50;;
46675;SDS011;32412;51.478;5.694;2023-05-19T05:50:02;17.77;;;8.00;;
46675;SDS011;32412;51.478;5.694;2023-05-19T05:52:29;13.32;;;7.35;;
46675;SDS011;32412;51.478;5.694;2023-05-19T05:54:56;17.33;;;7.50;;
46675;SDS011;32412;51.478;5.694;2023-05-19T05:57:22;17.90;;;7.72;;
46675;SDS011;32412;51.478;5.694;2023-05-19T05:59:48;13.20;;;7.82;;
46675;SDS011;32412;51.478;5.694;2023-05-19T06:02:15;15.88;;;7.28;;
46675;SDS011;32412;51.478;5.694;2023-05-19T06:04:42;11.95;;;6.55;;
46675;SDS011;32412;51.478;5.694;2023-05-19T06:07:08;12.77;;;6.78;;
46675;SDS011;32412;51.478;5.694;2023-05-19T06:09:34;12.45;;;7.10;;
46675;SDS011;32412;51.478;5.694;2023-05-19T06:11:59;11.00;;;7.07;;
46675;SDS011;32412;51.478;5.694;2023-05-19T06:14:26;10.75;;;7.28;;
46675;SDS011;32412;51.478;5.694;2023-05-19T06:16:51;10.80;;;7.05;;
46675;SDS011;32412;51.478;5.694;2023-05-19T06:19:17;10.27;;;6.85;;
46675;SDS011;32412;51.478;5.694;2023-05-19T06:21:46;12.70;;;7.28;;
46675;SDS011;32412;51.478;5.694;2023-05-19T06:24:11;13.23;;;7.70;;
46675;SDS011;32412;51.478;5.694;2023-05-19T06:26:39;15.52;;;7.18;;
46675;SDS011;32412;51.478;5.694;2023-05-19T06:29:05;12.45;;;8.10;;
46675;SDS011;32412;51.478;5.694;2023-05-19T06:31:31;15.20;;;7.50;;
46675;SDS011;32412;51.478;5.694;2023-05-19T06:33:58;10.40;;;6.50;;
46675;SDS011;32412;51.478;5.694;2023-05-19T06:36:24;12.00;;;6.25;;
46675;SDS011;32412;51.478;5.694;2023-05-19T06:38:50;15.32;;;7.13;;
46675;SDS011;32412;51.478;5.694;2023-05-19T06:41:16;9.15;;;5.97;;
46675;SDS011;32412;51.478;5.694;2023-05-19T06:43:41;18.65;;;6.80;;
46675;SDS011;32412;51.478;5.694;2023-05-19T06:46:07;11.95;;;6.53;;
46675;SDS011;32412;51.478;5.694;2023-05-19T06:48:33;12.63;;;6.50;;
46675;SDS011;32412;51.478;5.694;2023-05-19T06:50:59;13.27;;;6.47;;
46675;SDS011;32412;51.478;5.694;2023-05-19T06:53:24;15.63;;;6.93;;
46675;SDS011;32412;51.478;5.694;2023-05-19T06:55:50;11.40;;;5.93;;
46675;SDS011;32412;51.478;5.694;2023-05-19T06:58:16;15.20;;;6.40;;
46675;SDS011;32412;51.478;5.694;2023-05-19T07:00:42;13.90;;;6.95;;
46675;SDS011;32412;51.478;5.694;2023-05-19T07:03:08;11.93;;;6.53;;
46675;SDS011;32412;51.478;5.694;2023-05-19T07:05:33;12.35;;;6.28;;
46675;SDS011;32412;51.478;5.694;2023-05-19T07:07:59;13.90;;;5.75;;
46675;SDS011;32412;51.478;5.694;2023-05-19T07:10:25;13.00;;;6.10;;
46675;SDS011;32412;51.478;5.694;2023-05-19T07:12:51;11.35;;;5.78;;
46675;SDS011;32412;51.478;5.694;2023-05-19T07:15:17;13.75;;;5.68;;
46675;SDS011;32412;51.478;5.694;2023-05-19T07:17:43;11.10;;;5.88;;
46675;SDS011;32412;51.478;5.694;2023-05-19T07:20:09;10.50;;;5.60;;
46675;SDS011;32412;51.478;5.694;2023-05-19T07:22:35;12.10;;;5.43;;
46675;SDS011;32412;51.478;5.694;2023-05-19T07:25:02;12.77;;;5.22;;
46675;SDS011;32412;51.478;5.694;2023-05-19T07:27:28;9.70;;;5.18;;
46675;SDS011;32412;51.478;5.694;2023-05-19T07:29:53;9.82;;;4.90;;
46675;SDS011;32412;51.478;5.694;2023-05-19T07:32:19;9.52;;;5.30;;
46675;SDS011;32412;51.478;5.694;2023-05-19T07:34:45;9.52;;;5.28;;
46675;SDS011;32412;51.478;5.694;2023-05-19T07:37:10;11.30;;;5.25;;
46675;SDS011;32412;51.478;5.694;2023-05-19T07:39:36;10.60;;;5.25;;
46675;SDS011;32412;51.478;5.694;2023-05-19T07:42:02;9.80;;;4.50;;
46675;SDS011;32412;51.478;5.694;2023-05-19T07:44:27;8.50;;;5.10;;
46675;SDS011;32412;51.478;5.694;2023-05-19T07:46:55;12.43;;;4.97;;
46675;SDS011;32412;51.478;5.694;2023-05-19T07:49:21;8.25;;;4.70;;
46675;SDS011;32412;51.478;5.694;2023-05-19T07:51:47;9.40;;;4.28;;
46675;SDS011;32412;51.478;5.694;2023-05-19T07:54:13;8.68;;;4.85;;
46675;SDS011;32412;51.478;5.694;2023-05-19T07:56:39;9.02;;;4.57;;
46675;SDS011;32412;51.478;5.694;2023-05-19T07:59:05;10.77;;;5.35;;
46675;SDS011;32412;51.478;5.694;2023-05-19T08:01:32;12.90;;;4.88;;
46675;SDS011;32412;51.478;5.694;2023-05-19T08:03:58;8.30;;;5.47;;
46675;SDS011;32412;51.478;5.694;2023-05-19T08:06:24;7.53;;;3.95;;
46675;SDS011;32412;51.478;5.694;2023-05-19T08:08:50;9.77;;;4.38;;
46675;SDS011;32412;51.478;5.694;2023-05-19T08:11:16;8.05;;;4.55;;
46675;SDS011;32412;51.478;5.694;2023-05-19T08:13:42;8.30;;;4.22;;
46675;SDS011;32412;51.478;5.694;2023-05-19T08:16:07;8.40;;;3.85;;
46675;SDS011;32412;51.478;5.694;2023-05-19T08:18:33;6.30;;;3.47;;
46675;SDS011;32412;51.478;5.694;2023-05-19T08:21:02;6.75;;;3.83;;
46675;SDS011;32412;51.478;5.694;2023-05-19T08:23:27;9.73;;;3.50;;
46675;SDS011;32412;51.478;5.694;2023-05-19T08:25:53;5.03;;;3.35;;
46675;SDS011;32412;51.478;5.694;2023-05-19T08:28:19;9.02;;;3.67;;
46675;SDS011;32412;51.478;5.694;2023-05-19T08:30:45;8.95;;;3.90;;
46675;SDS011;32412;51.478;5.694;2023-05-19T08:33:10;6.60;;;3.05;;
46675;SDS011;32412;51.478;5.694;2023-05-19T08:35:36;4.50;;;2.70;;
46675;SDS011;32412;51.478;5.694;2023-05-19T08:38:01;5.93;;;3.30;;
46675;SDS011;32412;51.478;5.694;2023-05-19T08:40:27;6.30;;;2.90;;
46675;SDS011;32412;51.478;5.694;2023-05-19T08:42:55;12.25;;;2.63;;
46675;SDS011;32412;51.478;5.694;2023-05-19T08:45:21;2.53;;;2.10;;
46675;SDS011;32412;51.478;5.694;2023-05-19T08:47:47;5.88;;;2.97;;
46675;SDS011;32412;51.478;5.694;2023-05-19T08:50:20;6.65;;;2.28;;
46675;SDS011;32412;51.478;5.694;2023-05-19T08:52:54;26.90;;;3.70;;
46675;SDS011;32412;51.478;5.694;2023-05-19T08:55:51;5.22;;;2.20;;
46675;SDS011;32412;51.478;5.694;2023-05-19T08:58:24;5.05;;;1.85;;
46675;SDS011;32412;51.478;5.694;2023-05-19T09:00:51;4.82;;;2.00;;
46675;SDS011;32412;51.478;5.694;2023-05-19T09:03:19;6.95;;;1.75;;
46675;SDS011;32412;51.478;5.694;2023-05-19T09:05:46;7.47;;;2.08;;
46675;SDS011;32412;51.478;5.694;2023-05-19T09:08:12;6.90;;;2.25;;
46675;SDS011;32412;51.478;5.694;2023-05-19T09:10:38;8.43;;;2.50;;
46675;SDS011;32412;51.478;5.694;2023-05-19T09:13:03;6.55;;;2.03;;
46675;SDS011;32412;51.478;5.694;2023-05-19T09:15:29;6.88;;;1.80;;
46675;SDS011;32412;51.478;5.694;2023-05-19T09:20:40;7.03;;;2.17;;
46675;SDS011;32412;51.478;5.694;2023-05-19T09:25:45;6.47;;;1.80;;
46675;SDS011;32412;51.478;5.694;2023-05-19T09:28:24;6.45;;;1.67;;
46675;SDS011;32412;51.478;5.694;2023-05-19T09:31:01;4.70;;;1.42;;
46675;SDS011;32412;51.478;5.694;2023-05-19T09:33:32;3.90;;;1.50;;
46675;SDS011;32412;51.478;5.694;2023-05-19T09:36:02;4.43;;;1.20;;
46675;SDS011;32412;51.478;5.694;2023-05-19T09:38:35;4.18;;;1.65;;
46675;SDS011;32412;51.478;5.694;2023-05-19T09:41:05;5.63;;;1.98;;
46675;SDS011;32412;51.478;5.694;2023-05-19T09:43:32;6.70;;;1.60;;
46675;SDS011;32412;51.478;5.694;2023-05-19T09:46:08;4.72;;;1.40;;
46675;SDS011;32412;51.478;5.694;2023-05-19T09:48:37;3.60;;;1.48;;
46675;SDS011;32412;51.478;5.694;2023-05-19T09:51:03;4.47;;;1.80;;
46675;SDS011;32412;51.478;5.694;2023-05-19T09:53:32;7.60;;;1.95;;
46675;SDS011;32412;51.478;5.694;2023-05-19T09:55:59;10.65;;;1.98;;
46675;SDS011;32412;51.478;5.694;2023-05-19T09:58:30;4.07;;;1.73;;
46675;SDS011;32412;51.478;5.694;2023-05-19T10:00:58;4.40;;;1.52;;
46675;SDS011;32412;51.478;5.694;2023-05-19T10:03:25;5.28;;;1.67;;
46675;SDS011;32412;51.478;5.694;2023-05-19T10:05:52;5.38;;;1.77;;
46675;SDS011;32412;51.478;5.694;2023-05-19T10:08:18;7.60;;;1.80;;
46675;SDS011;32412;51.478;5.694;2023-05-19T10:10:44;4.55;;;1.95;;
46675;SDS011;32412;51.478;5.694;2023-05-19T10:13:11;4.10;;;1.98;;
46675;SDS011;32412;51.478;5.694;2023-05-19T10:15:37;4.00;;;1.60;;
46675;SDS011;32412;51.478;5.694;2023-05-19T10:18:07;4.85;;;1.90;;
46675;SDS011;32412;51.478;5.694;2023-05-19T10:20:34;5.03;;;1.90;;
46675;SDS011;32412;51.478;5.694;2023-05-19T10:23:01;6.47;;;1.88;;
46675;SDS011;32412;51.478;5.694;2023-05-19T10:25:28;5.50;;;1.88;;
46675;SDS011;32412;51.478;5.694;2023-05-19T10:28:00;7.13;;;1.90;;
46675;SDS011;32412;51.478;5.694;2023-05-19T10:30:35;7.03;;;1.70;;
46675;SDS011;32412;51.478;5.694;2023-05-19T10:33:08;5.20;;;1.90;;
46675;SDS011;32412;51.478;5.694;2023-05-19T10:38:44;7.22;;;2.08;;
46675;SDS011;32412;51.478;5.694;2023-05-19T10:46:29;5.97;;;1.88;;
46675;SDS011;32412;51.478;5.694;2023-05-19T10:48:55;5.18;;;1.73;;
46675;SDS011;32412;51.478;5.694;2023-05-19T10:51:31;3.17;;;1.90;;
46675;SDS011;32412;51.478;5.694;2023-05-19T10:53:57;5.90;;;1.88;;
46675;SDS011;32412;51.478;5.694;2023-05-19T10:56:30;4.97;;;2.15;;
46675;SDS011;32412;51.478;5.694;2023-05-19T10:59:00;5.50;;;2.10;;
46675;SDS011;32412;51.478;5.694;2023-05-19T11:01:31;7.40;;;2.00;;
46675;SDS011;32412;51.478;5.694;2023-05-19T11:04:05;7.75;;;2.10;;
46675;SDS011;32412;51.478;5.694;2023-05-19T11:06:33;5.88;;;1.95;;
46675;SDS011;32412;51.478;5.694;2023-05-19T11:09:14;6.93;;;2.10;;
46675;SDS011;32412;51.478;5.694;2023-05-19T11:11:43;3.17;;;1.55;;
46675;SDS011;32412;51.478;5.694;2023-05-19T11:14:09;7.15;;;2.20;;
46675;SDS011;32412;51.478;5.694;2023-05-19T11:16:38;6.45;;;2.60;;
46675;SDS011;32412;51.478;5.694;2023-05-19T11:19:05;5.18;;;1.77;;
46675;SDS011;32412;51.478;5.694;2023-05-19T11:21:50;8.15;;;2.00;;
46675;SDS011;32412;51.478;5.694;2023-05-19T11:27:20;5.10;;;2.00;;
46675;SDS011;32412;51.478;5.694;2023-05-19T11:32:33;5.97;;;1.90;;
46675;SDS011;32412;51.478;5.694;2023-05-19T11:35:00;3.35;;;1.95;;
46675;SDS011;32412;51.478;5.694;2023-05-19T11:37:26;7.70;;;2.72;;
46675;SDS011;32412;51.478;5.694;2023-05-19T11:39:56;5.82;;;1.73;;
46675;SDS011;32412;51.478;5.694;2023-05-19T11:42:22;4.68;;;1.83;;
46675;SDS011;32412;51.478;5.694;2023-05-19T11:44:48;4.40;;;1.67;;
46675;SDS011;32412;51.478;5.694;2023-05-19T11:47:14;5.22;;;1.77;;
46675;SDS011;32412;51.478;5.694;2023-05-19T11:49:44;5.93;;;2.00;;
46675;SDS011;32412;51.478;5.694;2023-05-19T11:52:12;4.40;;;1.85;;
46675;SDS011;32412;51.478;5.694;2023-05-19T11:54:39;2.97;;;1.63;;
46675;SDS011;32412;51.478;5.694;2023-05-19T11:57:07;6.78;;;1.95;;
46675;SDS011;32412;51.478;5.694;2023-05-19T11:59:35;5.43;;;2.05;;
46675;SDS011;32412;51.478;5.694;2023-05-19T12:02:19;7.65;;;1.63;;
46675;SDS011;32412;51.478;5.694;2023-05-19T12:04:46;7.00;;;2.00;;
46675;SDS011;32412;51.478;5.694;2023-05-19T12:07:22;5.22;;;1.67;;
46675;SDS011;32412;51.478;5.694;2023-05-19T12:09:49;8.10;;;2.08;;
46675;SDS011;32412;51.478;5.694;2023-05-19T12:12:16;7.30;;;1.55;;
46675;SDS011;32412;51.478;5.694;2023-05-19T12:14:43;6.00;;;1.90;;
46675;SDS011;32412;51.478;5.694;2023-05-19T12:17:14;5.45;;;1.75;;
46675;SDS011;32412;51.478;5.694;2023-05-19T12:19:45;3.70;;;1.55;;
46675;SDS011;32412;51.478;5.694;2023-05-19T12:22:12;5.22;;;1.80;;
46675;SDS011;32412;51.478;5.694;2023-05-19T12:24:39;5.07;;;1.65;;
46675;SDS011;32412;51.478;5.694;2023-05-19T12:27:17;5.40;;;1.75;;
46675;SDS011;32412;51.478;5.694;2023-05-19T12:29:50;5.28;;;1.90;;
46675;SDS011;32412;51.478;5.694;2023-05-19T12:32:23;5.13;;;1.85;;
46675;SDS011;32412;51.478;5.694;2023-05-19T12:34:50;7.18;;;1.70;;
46675;SDS011;32412;51.478;5.694;2023-05-19T12:37:16;7.15;;;2.30;;
46675;SDS011;32412;51.478;5.694;2023-05-19T12:39:43;5.40;;;1.83;;
46675;SDS011;32412;51.478;5.694;2023-05-19T12:42:10;4.22;;;1.90;;
46675;SDS011;32412;51.478;5.694;2023-05-19T12:47:10;8.70;;;2.17;;
46675;SDS011;32412;51.478;5.694;2023-05-19T12:49:52;5.57;;;1.77;;
46675;SDS011;32412;51.478;5.694;2023-05-19T12:52:19;3.90;;;1.95;;
46675;SDS011;32412;51.478;5.694;2023-05-19T12:54:47;2.53;;;1.60;;
46675;SDS011;32412;51.478;5.694;2023-05-19T12:57:15;2.72;;;1.52;;
46675;SDS011;32412;51.478;5.694;2023-05-19T12:59:41;4.05;;;1.58;;
46675;SDS011;32412;51.478;5.694;2023-05-19T13:02:07;6.47;;;2.22;;
46675;SDS011;32412;51.478;5.694;2023-05-19T13:04:33;8.68;;;2.60;;
46675;SDS011;32412;51.478;5.694;2023-05-19T13:06:58;5.65;;;1.90;;
46675;SDS011;32412;51.478;5.694;2023-05-19T13:09:24;5.78;;;2.17;;
46675;SDS011;32412;51.478;5.694;2023-05-19T13:11:50;4.75;;;1.80;;
46675;SDS011;32412;51.478;5.694;2023-05-19T13:14:17;4.80;;;2.22;;
46675;SDS011;32412;51.478;5.694;2023-05-19T13:16:46;5.00;;;1.90;;
46675;SDS011;32412;51.478;5.694;2023-05-19T13:19:16;6.20;;;2.15;;
46675;SDS011;32412;51.478;5.694;2023-05-19T13:21:43;4.10;;;1.98;;
46675;SDS011;32412;51.478;5.694;2023-05-19T13:24:11;5.70;;;1.75;;
46675;SDS011;32412;51.478;5.694;2023-05-19T13:26:37;7.30;;;2.20;;
46675;SDS011;32412;51.478;5.694;2023-05-19T13:29:05;4.38;;;2.00;;
46675;SDS011;32412;51.478;5.694;2023-05-19T13:31:31;7.60;;;2.00;;
46675;SDS011;32412;51.478;5.694;2023-05-19T13:33:56;5.88;;;2.10;;
46675;SDS011;32412;51.478;5.694;2023-05-19T13:36:22;9.43;;;2.22;;
46675;SDS011;32412;51.478;5.694;2023-05-19T13:38:49;5.85;;;2.08;;
46675;SDS011;32412;51.478;5.694;2023-05-19T13:41:15;6.18;;;2.15;;
46675;SDS011;32412;51.478;5.694;2023-05-19T13:43:41;4.45;;;1.83;;
46675;SDS011;32412;51.478;5.694;2023-05-19T13:46:07;6.93;;;1.88;;
46675;SDS011;32412;51.478;5.694;2023-05-19T13:48:32;6.30;;;1.88;;
46675;SDS011;32412;51.478;5.694;2023-05-19T13:50:58;4.70;;;1.90;;
46675;SDS011;32412;51.478;5.694;2023-05-19T13:53:24;6.07;;;2.42;;
46675;SDS011;32412;51.478;5.694;2023-05-19T13:55:50;6.80;;;2.25;;
46675;SDS011;32412;51.478;5.694;2023-05-19T13:58:19;4.57;;;2.20;;
46675;SDS011;32412;51.478;5.694;2023-05-19T14:00:44;8.23;;;1.90;;
46675;SDS011;32412;51.478;5.694;2023-05-19T14:03:10;3.92;;;1.60;;
46675;SDS011;32412;51.478;5.694;2023-05-19T14:05:35;4.90;;;1.80;;
46675;SDS011;32412;51.478;5.694;2023-05-19T14:08:01;3.92;;;1.50;;
46675;SDS011;32412;51.478;5.694;2023-05-19T14:10:29;4.55;;;1.70;;
46675;SDS011;32412;51.478;5.694;2023-05-19T14:12:55;5.63;;;1.98;;
46675;SDS011;32412;51.478;5.694;2023-05-19T14:15:23;7.60;;;2.25;;
46675;SDS011;32412;51.478;5.694;2023-05-19T14:17:50;9.95;;;2.45;;
46675;SDS011;32412;51.478;5.694;2023-05-19T14:20:17;5.85;;;2.10;;
46675;SDS011;32412;51.478;5.694;2023-05-19T14:22:42;5.22;;;2.10;;
46675;SDS011;32412;51.478;5.694;2023-05-19T14:25:08;5.72;;;2.08;;
46675;SDS011;32412;51.478;5.694;2023-05-19T14:27:34;5.55;;;1.80;;
46675;SDS011;32412;51.478;5.694;2023-05-19T14:30:00;3.88;;;1.75;;
46675;SDS011;32412;51.478;5.694;2023-05-19T14:32:25;5.10;;;1.63;;
46675;SDS011;32412;51.478;5.694;2023-05-19T14:34:51;5.57;;;1.75;;
46675;SDS011;32412;51.478;5.694;2023-05-19T14:37:17;5.20;;;2.10;;
46675;SDS011;32412;51.478;5.694;2023-05-19T14:39:43;4.40;;;1.98;;
46675;SDS011;32412;51.478;5.694;2023-05-19T14:42:09;5.85;;;2.28;;
46675;SDS011;32412;51.478;5.694;2023-05-19T14:44:35;5.05;;;1.98;;
46675;SDS011;32412;51.478;5.694;2023-05-19T14:47:01;5.70;;;2.10;;
46675;SDS011;32412;51.478;5.694;2023-05-19T14:49:28;6.07;;;2.22;;
46675;SDS011;32412;51.478;5.694;2023-05-19T14:51:54;4.78;;;1.92;;
46675;SDS011;32412;51.478;5.694;2023-05-19T14:54:20;6.13;;;2.15;;
46675;SDS011;32412;51.478;5.694;2023-05-19T14:56:45;4.07;;;2.30;;
46675;SDS011;32412;51.478;5.694;2023-05-19T14:59:11;8.10;;;2.63;;
46675;SDS011;32412;51.478;5.694;2023-05-19T15:01:37;7.22;;;2.00;;
46675;SDS011;32412;51.478;5.694;2023-05-19T15:04:02;4.90;;;2.05;;
46675;SDS011;32412;51.478;5.694;2023-05-19T15:06:28;5.03;;;2.15;;
46675;SDS011;32412;51.478;5.694;2023-05-19T15:08:54;9.70;;;2.63;;
46675;SDS011;32412;51.478;5.694;2023-05-19T15:11:20;6.57;;;2.10;;
46675;SDS011;32412;51.478;5.694;2023-05-19T15:13:46;7.80;;;2.53;;
46675;SDS011;32412;51.478;5.694;2023-05-19T15:16:12;6.25;;;2.28;;
46675;SDS011;32412;51.478;5.694;2023-05-19T15:18:37;4.15;;;1.88;;
46675;SDS011;32412;51.478;5.694;2023-05-19T15:21:03;4.07;;;1.58;;
46675;SDS011;32412;51.478;5.694;2023-05-19T15:23:29;5.95;;;2.00;;
46675;SDS011;32412;51.478;5.694;2023-05-19T15:25:54;4.40;;;1.95;;
46675;SDS011;32412;51.478;5.694;2023-05-19T15:28:20;3.60;;;1.88;;
46675;SDS011;32412;51.478;5.694;2023-05-19T15:30:46;4.50;;;1.85;;
46675;SDS011;32412;51.478;5.694;2023-05-19T15:33:12;5.82;;;1.90;;
46675;SDS011;32412;51.478;5.694;2023-05-19T15:35:37;4.95;;;1.98;;
46675;SDS011;32412;51.478;5.694;2023-05-19T15:38:03;6.15;;;1.80;;
46675;SDS011;32412;51.478;5.694;2023-05-19T15:40:31;5.82;;;1.70;;
46675;SDS011;32412;51.478;5.694;2023-05-19T15:42:56;4.50;;;1.63;;
46675;SDS011;32412;51.478;5.694;2023-05-19T15:45:22;4.63;;;1.88;;
46675;SDS011;32412;51.478;5.694;2023-05-19T15:47:48;10.35;;;1.90;;
46675;SDS011;32412;51.478;5.694;2023-05-19T15:50:14;5.97;;;1.92;;
46675;SDS011;32412;51.478;5.694;2023-05-19T15:52:39;6.43;;;1.50;;
46675;SDS011;32412;51.478;5.694;2023-05-19T15:55:05;9.73;;;2.00;;
46675;SDS011;32412;51.478;5.694;2023-05-19T15:57:31;5.85;;;1.98;;
46675;SDS011;32412;51.478;5.694;2023-05-19T15:59:57;5.13;;;1.83;;
46675;SDS011;32412;51.478;5.694;2023-05-19T16:02:23;4.72;;;1.45;;
46675;SDS011;32412;51.478;5.694;2023-05-19T16:04:48;6.65;;;1.98;;
46675;SDS011;32412;51.478;5.694;2023-05-19T16:07:14;5.68;;;2.38;;
46675;SDS011;32412;51.478;5.694;2023-05-19T16:09:40;4.40;;;2.33;;
46675;SDS011;32412;51.478;5.694;2023-05-19T16:12:06;6.15;;;1.77;;
46675;SDS011;32412;51.478;5.694;2023-05-19T16:14:32;5.25;;;1.55;;
46675;SDS011;32412;51.478;5.694;2023-05-19T16:17:00;7.10;;;1.80;;
46675;SDS011;32412;51.478;5.694;2023-05-19T16:19:27;6.65;;;2.08;;